createdAt,value
2022-08-25T00:00:10.423Z,5.43
2022-08-25T00:02:37.808Z,11.00
2022-08-25T00:05:05.571Z,6.83
2022-08-25T00:07:33.622Z,7.67
2022-08-25T00:10:00.379Z,6.00
2022-08-25T00:12:27.428Z,9.90
2022-08-25T00:14:55.116Z,6.97
2022-08-25T00:17:21.884Z,6.83
2022-08-25T00:19:48.674Z,6.00
2022-08-25T00:22:15.431Z,4.43
2022-08-25T00:24:42.565Z,8.33
2022-08-25T00:27:12.244Z,6.33
2022-08-25T00:29:40.582Z,6.53
2022-08-25T00:32:07.487Z,6.77
2022-08-25T00:34:37.907Z,6.53
2022-08-25T00:37:10.262Z,7.40
2022-08-25T00:39:42.533Z,5.73
2022-08-25T00:42:13.422Z,6.00
2022-08-25T00:44:44.000Z,8.67
2022-08-25T00:47:11.342Z,5.70
2022-08-25T00:49:59.491Z,7.33
2022-08-25T00:52:32.720Z,4.73
2022-08-25T00:55:11.418Z,7.53
2022-08-25T00:57:43.672Z,5.93
2022-08-25T01:00:19.448Z,6.83
2022-08-25T01:02:46.384Z,6.50
2022-08-25T01:05:13.481Z,6.87
2022-08-25T01:07:41.804Z,5.33
2022-08-25T01:10:13.487Z,8.63
2022-08-25T01:12:40.745Z,5.90
2022-08-25T01:15:10.128Z,6.67
2022-08-25T01:17:51.688Z,11.03
2022-08-25T01:20:20.702Z,7.77
2022-08-25T01:22:49.265Z,7.50
2022-08-25T01:26:06.434Z,6.17
2022-08-25T01:28:33.418Z,8.67
2022-08-25T01:31:00.609Z,8.20
2022-08-25T01:33:28.116Z,10.80
2022-08-25T01:35:55.478Z,11.43
2022-08-25T01:38:23.209Z,6.67
2022-08-25T01:40:50.362Z,6.70
2022-08-25T01:43:31.224Z,7.60
2022-08-25T01:45:58.772Z,6.20
2022-08-25T01:48:27.120Z,7.80
2022-08-25T01:50:53.970Z,9.67
2022-08-25T01:53:26.701Z,9.00
2022-08-25T01:56:01.692Z,7.73
2022-08-25T01:58:32.925Z,7.27
2022-08-25T02:01:02.443Z,11.23
2022-08-25T02:03:29.539Z,11.50
2022-08-25T02:05:57.554Z,9.50
2022-08-25T02:08:24.807Z,7.73
2022-08-25T02:10:53.874Z,8.47
2022-08-25T02:13:20.895Z,9.60
2022-08-25T02:15:56.553Z,8.93
2022-08-25T02:18:24.377Z,7.33
2022-08-25T02:20:51.192Z,5.37
2022-08-25T02:23:18.204Z,6.73
2022-08-25T02:25:44.969Z,8.27
2022-08-25T02:28:11.813Z,5.23
2022-08-25T02:30:42.522Z,10.97
2022-08-25T02:33:09.743Z,13.37
2022-08-25T02:35:37.380Z,10.57
2022-08-25T02:38:04.507Z,9.93
2022-08-25T02:40:31.669Z,8.37
2022-08-25T02:42:58.487Z,11.73
2022-08-25T02:45:25.374Z,8.17
2022-08-25T02:47:52.780Z,11.63
2022-08-25T02:50:19.737Z,10.00
2022-08-25T02:52:46.934Z,8.27
2022-08-25T02:55:14.355Z,10.23
2022-08-25T02:57:42.430Z,8.80
2022-08-25T03:00:12.828Z,12.67
2022-08-25T03:02:41.486Z,10.10
2022-08-25T03:05:10.651Z,7.27
2022-08-25T03:07:38.997Z,8.67
2022-08-25T03:10:14.147Z,12.93
2022-08-25T03:12:41.737Z,10.80
2022-08-25T03:15:12.780Z,10.80
2022-08-25T03:17:40.293Z,11.83
2022-08-25T03:20:08.068Z,9.83
2022-08-25T03:22:35.325Z,12.90
2022-08-25T03:25:24.200Z,10.17
2022-08-25T03:27:51.972Z,8.33
2022-08-25T03:30:19.336Z,10.77
2022-08-25T03:32:46.354Z,9.60
2022-08-25T03:35:13.498Z,9.27
2022-08-25T03:37:40.742Z,8.67
2022-08-25T03:40:15.175Z,9.60
2022-08-25T03:42:46.787Z,9.73
2022-08-25T03:45:16.554Z,9.37
2022-08-25T03:47:46.756Z,10.80
2022-08-25T03:50:14.617Z,11.90
2022-08-25T03:52:42.724Z,15.10
2022-08-25T03:55:12.190Z,10.33
2022-08-25T03:57:39.239Z,10.03
2022-08-25T04:00:08.229Z,11.27
2022-08-25T04:02:35.033Z,11.83
2022-08-25T04:05:02.149Z,10.83
2022-08-25T04:07:30.002Z,12.00
2022-08-25T04:09:56.792Z,9.63
2022-08-25T04:12:24.397Z,9.50
2022-08-25T04:14:51.531Z,10.40
2022-08-25T04:17:18.667Z,13.37
2022-08-25T04:19:45.408Z,10.17
2022-08-25T04:22:13.280Z,9.30
2022-08-25T04:24:40.494Z,11.57
2022-08-25T04:27:07.291Z,9.73
2022-08-25T04:29:34.243Z,10.33
2022-08-25T04:32:01.380Z,9.93
2022-08-25T04:34:30.636Z,10.13
2022-08-25T04:37:03.088Z,10.57
2022-08-25T04:39:30.680Z,10.63
2022-08-25T04:41:57.869Z,11.00
2022-08-25T04:44:25.387Z,9.83
2022-08-25T04:46:52.171Z,12.37
2022-08-25T04:49:19.299Z,9.83
2022-08-25T04:51:46.527Z,9.40
2022-08-25T04:54:17.918Z,9.67
2022-08-25T04:56:47.644Z,9.43
2022-08-25T04:59:16.953Z,10.27
2022-08-25T05:01:47.168Z,12.83
2022-08-25T05:04:27.587Z,10.27
2022-08-25T05:06:55.930Z,9.57
2022-08-25T05:09:23.894Z,10.80
2022-08-25T05:11:52.738Z,9.60
2022-08-25T05:14:26.257Z,10.73
2022-08-25T05:16:57.366Z,10.07
2022-08-25T05:19:24.710Z,8.53
2022-08-25T05:21:52.077Z,14.27
2022-08-25T05:24:19.821Z,8.70
2022-08-25T05:26:46.796Z,9.23
2022-08-25T05:29:14.455Z,10.20
2022-08-25T05:31:47.069Z,11.27
2022-08-25T05:34:18.939Z,12.67
2022-08-25T05:36:46.168Z,9.60
2022-08-25T05:39:13.373Z,13.47
2022-08-25T05:41:40.881Z,10.63
2022-08-25T05:44:07.727Z,9.40
2022-08-25T05:46:34.553Z,9.90
2022-08-25T05:49:01.967Z,11.33
2022-08-25T05:51:28.937Z,7.57
2022-08-25T05:53:55.707Z,10.90
2022-08-25T05:56:22.539Z,12.27
2022-08-25T05:58:50.216Z,9.63
2022-08-25T06:01:43.534Z,9.23
2022-08-25T06:04:13.505Z,11.53
2022-08-25T06:06:40.842Z,11.00
2022-08-25T06:09:09.386Z,10.03
2022-08-25T06:11:40.071Z,10.17
2022-08-25T06:14:10.789Z,10.67
2022-08-25T06:16:39.045Z,10.33
2022-08-25T06:19:07.332Z,14.47
2022-08-25T06:21:34.118Z,9.63
2022-08-25T06:24:02.207Z,8.77
2022-08-25T06:26:29.088Z,10.13
2022-08-25T06:28:55.895Z,9.60
2022-08-25T06:31:23.503Z,8.23
2022-08-25T06:33:50.987Z,9.80
2022-08-25T06:36:19.249Z,8.87
2022-08-25T06:38:47.065Z,8.70
2022-08-25T06:41:14.037Z,10.93
2022-08-25T06:43:48.147Z,10.67
2022-08-25T06:46:23.089Z,7.63
2022-08-25T06:49:03.060Z,9.00
2022-08-25T06:51:30.035Z,11.10
2022-08-25T06:53:56.866Z,11.37
2022-08-25T06:56:23.991Z,8.30
2022-08-25T06:58:50.922Z,10.87
2022-08-25T07:01:23.418Z,8.33
2022-08-25T07:03:57.462Z,13.70
2022-08-25T07:06:26.642Z,8.27
2022-08-25T07:08:53.905Z,12.37
2022-08-25T07:11:21.603Z,10.50
2022-08-25T07:13:50.123Z,11.00
2022-08-25T07:16:18.694Z,10.17
2022-08-25T07:18:46.305Z,8.77
2022-08-25T07:21:14.976Z,9.57
2022-08-25T07:23:42.957Z,8.43
2022-08-25T07:26:27.161Z,11.03
2022-08-25T07:28:59.753Z,10.40
2022-08-25T07:31:29.435Z,8.83
2022-08-25T07:34:15.039Z,7.43
2022-08-25T07:36:43.600Z,7.03
2022-08-25T07:39:11.497Z,10.50
2022-08-25T07:41:41.374Z,7.95
2022-08-25T07:44:10.399Z,6.60
2022-08-25T07:46:38.248Z,7.32
2022-08-25T07:49:16.610Z,6.95
2022-08-25T07:52:05.457Z,6.22
2022-08-25T07:54:34.495Z,12.05
2022-08-25T07:57:05.722Z,8.13
2022-08-25T07:59:38.996Z,7.82
2022-08-25T08:02:18.599Z,8.35
2022-08-25T08:04:48.763Z,5.22
2022-08-25T08:07:19.037Z,8.07
2022-08-25T08:09:46.958Z,8.82
2022-08-25T08:12:13.858Z,6.55
2022-08-25T08:14:42.180Z,6.00
2022-08-25T08:17:12.362Z,8.75
2022-08-25T08:19:44.840Z,6.90
2022-08-25T08:22:15.590Z,5.82
2022-08-25T08:24:54.424Z,7.47
2022-08-25T08:27:23.637Z,6.78
2022-08-25T08:29:50.425Z,5.93
2022-08-25T08:32:18.522Z,5.80
2022-08-25T08:34:47.065Z,6.60
2022-08-25T08:37:18.691Z,5.63
2022-08-25T08:39:49.081Z,5.18
2022-08-25T08:42:34.572Z,6.93
2022-08-25T08:45:05.229Z,5.30
2022-08-25T08:48:11.102Z,5.97
2022-08-25T08:51:09.754Z,6.70
2022-08-25T08:54:04.714Z,7.05
2022-08-25T08:56:48.958Z,6.00
2022-08-25T08:59:22.039Z,7.00
2022-08-25T09:02:01.180Z,8.13
2022-08-25T09:04:35.676Z,7.00
2022-08-25T09:07:09.346Z,4.93
2022-08-25T09:09:40.151Z,7.45
2022-08-25T09:12:27.675Z,10.70
2022-08-25T09:15:23.402Z,4.57
2022-08-25T09:17:54.386Z,5.68
2022-08-25T09:20:45.015Z,4.85
2022-08-25T09:23:45.790Z,8.15
2022-08-25T09:26:22.153Z,3.85
2022-08-25T09:28:55.436Z,4.22
2022-08-25T09:31:29.547Z,3.80
2022-08-25T09:34:02.191Z,4.45
2022-08-25T09:36:34.256Z,4.43
2022-08-25T09:39:04.918Z,4.75
2022-08-25T09:41:53.915Z,4.93
2022-08-25T09:44:43.736Z,6.95
2022-08-25T09:47:27.533Z,4.25
2022-08-25T09:50:00.872Z,8.32
2022-08-25T09:52:41.481Z,7.03
2022-08-25T09:55:08.630Z,5.78
2022-08-25T09:57:49.153Z,7.72
2022-08-25T10:00:30.898Z,5.30
2022-08-25T10:03:08.485Z,7.07
2022-08-25T10:05:41.619Z,3.03
2022-08-25T10:08:24.790Z,5.95
2022-08-25T10:10:59.889Z,4.70
2022-08-25T10:13:41.471Z,6.13
2022-08-25T10:16:36.081Z,5.13
2022-08-25T10:19:09.981Z,3.85
2022-08-25T10:21:39.406Z,3.05
2022-08-25T10:24:07.535Z,6.10
2022-08-25T10:27:08.966Z,4.68
2022-08-25T10:29:38.503Z,3.08
2022-08-25T10:32:13.958Z,4.20
2022-08-25T10:34:56.231Z,2.83
2022-08-25T10:37:44.698Z,3.42
2022-08-25T10:40:22.799Z,5.53
2022-08-25T10:43:07.879Z,3.75
2022-08-25T10:45:47.887Z,3.10
2022-08-25T10:48:41.254Z,3.85
2022-08-25T10:51:46.567Z,4.32
2022-08-25T10:54:42.823Z,3.17
2022-08-25T10:57:30.047Z,3.95
2022-08-25T11:00:03.537Z,4.05
2022-08-25T11:03:01.185Z,3.15
2022-08-25T11:05:36.783Z,5.22
2022-08-25T11:08:10.537Z,5.30
2022-08-25T11:10:44.601Z,5.13
2022-08-25T11:13:30.033Z,4.50
2022-08-25T11:16:17.633Z,5.03
2022-08-25T11:19:02.435Z,6.80
2022-08-25T11:21:54.145Z,5.00
2022-08-25T11:24:53.220Z,5.78
2022-08-25T11:27:29.951Z,10.63
2022-08-25T11:30:09.045Z,10.18
2022-08-25T11:32:37.898Z,3.97
2022-08-25T11:35:12.301Z,5.45
2022-08-25T11:38:13.889Z,5.40
2022-08-25T11:40:50.225Z,4.85
2022-08-25T11:43:55.570Z,4.55
2022-08-25T11:47:02.766Z,3.90
2022-08-25T11:49:51.691Z,6.85
2022-08-25T11:52:44.036Z,3.58
2022-08-25T11:55:29.575Z,4.65
2022-08-25T11:58:23.522Z,5.30
2022-08-25T12:00:53.037Z,5.63
2022-08-25T12:03:35.841Z,4.05
2022-08-25T12:06:27.006Z,2.85
2022-08-25T12:08:59.895Z,5.75
2022-08-25T12:11:46.296Z,5.80
2022-08-25T12:14:23.574Z,6.35
2022-08-25T12:16:56.952Z,3.38
2022-08-25T12:19:29.669Z,2.75
2022-08-25T12:22:27.631Z,3.50
2022-08-25T12:25:03.156Z,3.78
2022-08-25T12:28:03.034Z,3.72
2022-08-25T12:30:50.624Z,4.80
2022-08-25T12:33:33.070Z,3.00
2022-08-25T12:36:03.724Z,3.08
2022-08-25T12:38:53.692Z,3.92
2022-08-25T12:41:24.563Z,3.45
2022-08-25T12:43:54.557Z,2.88
2022-08-25T12:46:21.738Z,4.18
2022-08-25T12:49:14.967Z,5.13
2022-08-25T12:52:00.073Z,2.72
2022-08-25T12:55:01.105Z,4.70
2022-08-25T12:57:42.042Z,5.75
2022-08-25T13:00:23.611Z,3.38
2022-08-25T13:03:14.156Z,5.82
2022-08-25T13:06:05.835Z,2.97
2022-08-25T13:09:21.835Z,4.03
2022-08-25T13:12:14.452Z,3.22
2022-08-25T13:14:44.040Z,5.60
2022-08-25T13:17:12.054Z,3.97
2022-08-25T13:19:38.867Z,4.95
2022-08-25T13:22:17.811Z,4.15
2022-08-25T13:24:47.422Z,5.20
2022-08-25T13:27:26.504Z,6.20
2022-08-25T13:29:56.978Z,2.60
2022-08-25T13:32:35.668Z,3.25
2022-08-25T13:35:17.585Z,2.80
2022-08-25T13:37:47.496Z,4.80
2022-08-25T13:40:28.101Z,8.60
2022-08-25T13:43:11.533Z,5.57
2022-08-25T13:45:50.526Z,3.08
2022-08-25T13:48:33.943Z,2.97
2022-08-25T13:51:31.552Z,3.45
2022-08-25T13:54:08.727Z,3.92
2022-08-25T13:56:40.933Z,4.85
2022-08-25T13:59:24.674Z,3.55
2022-08-25T14:01:54.221Z,5.10
2022-08-25T14:04:32.779Z,3.35
2022-08-25T14:07:19.414Z,3.38
2022-08-25T14:09:54.021Z,5.10
2022-08-25T14:12:39.527Z,3.28
2022-08-25T14:15:11.799Z,2.55
2022-08-25T14:17:41.343Z,5.15
2022-08-25T14:20:27.276Z,3.92
2022-08-25T14:22:58.131Z,3.90
2022-08-25T14:25:30.337Z,3.97
2022-08-25T14:28:10.800Z,3.97
2022-08-25T14:30:46.206Z,4.75
2022-08-25T14:33:15.195Z,4.53
2022-08-25T14:35:45.516Z,3.80
2022-08-25T14:38:14.966Z,5.55
2022-08-25T14:40:42.927Z,7.32
2022-08-25T14:43:10.298Z,5.45
2022-08-25T14:45:42.932Z,5.90
2022-08-25T14:48:18.079Z,5.15
2022-08-25T14:50:46.093Z,5.35
2022-08-25T14:53:13.151Z,5.80
2022-08-25T14:55:40.020Z,4.05
2022-08-25T14:58:07.445Z,4.05
2022-08-25T15:00:42.027Z,2.95
2022-08-25T15:03:13.295Z,8.20
2022-08-25T15:05:40.651Z,3.15
2022-08-25T15:08:28.909Z,6.57
2022-08-25T15:10:59.383Z,5.25
2022-08-25T15:13:27.471Z,5.25
2022-08-25T15:15:55.387Z,4.35
2022-08-25T15:18:25.816Z,4.00
2022-08-25T15:20:52.592Z,3.97
2022-08-25T15:23:19.754Z,4.40
2022-08-25T15:25:49.131Z,3.70
2022-08-25T15:28:22.298Z,4.80
2022-08-25T15:30:50.378Z,5.13
2022-08-25T15:33:17.515Z,4.03
2022-08-25T15:35:45.104Z,4.95
2022-08-25T15:38:12.763Z,6.88
2022-08-25T15:40:39.725Z,3.40
2022-08-25T15:43:07.321Z,6.38
2022-08-25T15:45:36.402Z,5.03
2022-08-25T15:48:04.466Z,2.88
2022-08-25T15:50:34.170Z,4.03
2022-08-25T15:53:01.003Z,5.95
2022-08-25T15:55:27.940Z,3.50
2022-08-25T15:57:55.807Z,6.28
2022-08-25T16:00:23.051Z,4.20
2022-08-25T16:02:50.306Z,4.80
2022-08-25T16:05:17.364Z,4.97
2022-08-25T16:07:51.677Z,5.28
2022-08-25T16:10:18.976Z,5.25
2022-08-25T16:12:46.048Z,4.40
2022-08-25T16:15:13.197Z,3.13
2022-08-25T16:17:40.503Z,6.85
2022-08-25T16:20:08.244Z,7.15
2022-08-25T16:22:41.747Z,9.10
2022-08-25T16:25:09.077Z,8.75
2022-08-25T16:27:40.266Z,6.40
2022-08-25T16:30:11.773Z,6.55
2022-08-25T16:32:41.075Z,7.97
2022-08-25T16:35:11.046Z,6.28
2022-08-25T16:37:39.279Z,7.18
2022-08-25T16:40:08.787Z,6.03
2022-08-25T16:42:35.620Z,7.38
2022-08-25T16:45:02.607Z,5.63
2022-08-25T16:47:37.081Z,11.55
2022-08-25T16:50:08.897Z,7.03
2022-08-25T16:52:56.667Z,5.20
2022-08-25T16:55:25.965Z,5.90
2022-08-25T16:57:54.260Z,3.90
2022-08-25T17:00:24.875Z,5.60
2022-08-25T17:02:59.250Z,6.72
2022-08-25T17:05:28.183Z,5.47
2022-08-25T17:08:14.471Z,4.47
2022-08-25T17:10:44.644Z,5.28
2022-08-25T17:13:13.486Z,3.45
2022-08-25T17:15:42.998Z,2.83
2022-08-25T17:18:11.163Z,4.18
2022-08-25T17:20:38.747Z,3.05
2022-08-25T17:23:11.818Z,8.30
2022-08-25T17:25:41.335Z,5.53
2022-08-25T17:28:11.975Z,7.35
2022-08-25T17:30:39.537Z,9.32
2022-08-25T17:33:07.487Z,7.25
2022-08-25T17:35:40.126Z,10.90
2022-08-25T17:38:07.206Z,11.73
2022-08-25T17:40:35.863Z,8.13
2022-08-25T17:43:03.247Z,6.18
2022-08-25T17:45:30.463Z,7.38
2022-08-25T17:47:58.163Z,8.55
2022-08-25T17:50:28.647Z,7.15
2022-08-25T17:52:55.759Z,5.72
2022-08-25T17:55:23.379Z,9.90
2022-08-25T17:57:51.109Z,9.02
2022-08-25T18:00:20.449Z,9.07
2022-08-25T18:02:48.533Z,8.85
2022-08-25T18:05:16.811Z,12.38
2022-08-25T18:07:44.062Z,13.68
2022-08-25T18:10:12.225Z,13.43
2022-08-25T18:12:39.206Z,16.27
2022-08-25T18:15:07.143Z,9.90
2022-08-25T18:17:36.431Z,16.48
2022-08-25T18:20:09.838Z,11.73
2022-08-25T18:22:40.339Z,15.45
2022-08-25T18:25:13.781Z,15.00
2022-08-25T18:27:40.707Z,13.60
2022-08-25T18:30:08.450Z,13.20
2022-08-25T18:32:36.238Z,12.15
2022-08-25T18:35:04.088Z,14.93
2022-08-25T18:37:49.874Z,16.02
2022-08-25T18:40:22.787Z,18.67
2022-08-25T18:42:51.449Z,16.73
2022-08-25T18:45:19.588Z,22.60
2022-08-25T18:47:47.905Z,22.58
2022-08-25T18:50:15.316Z,23.25
2022-08-25T18:52:42.223Z,25.13
2022-08-25T18:55:09.980Z,25.33
2022-08-25T18:57:41.727Z,25.33
2022-08-25T19:00:11.921Z,25.88
2022-08-25T19:02:39.094Z,23.58
2022-08-25T19:05:12.186Z,28.52
2022-08-25T19:07:41.229Z,28.45
2022-08-25T19:10:08.854Z,28.73
2022-08-25T19:12:36.775Z,30.58
2022-08-25T19:15:05.226Z,31.88
2022-08-25T19:17:37.310Z,32.13
2022-08-25T19:20:11.193Z,33.67
2022-08-25T19:22:41.957Z,35.65
2022-08-25T19:25:10.551Z,35.13
2022-08-25T19:27:38.410Z,33.10
2022-08-25T19:30:09.113Z,36.50
2022-08-25T19:32:42.388Z,40.17
2022-08-25T19:35:32.097Z,42.70
2022-08-25T19:38:00.430Z,43.85
2022-08-25T19:40:29.072Z,42.30
2022-08-25T19:42:57.096Z,44.60
2022-08-25T19:45:25.375Z,46.20
2022-08-25T19:47:52.510Z,43.22
2022-08-25T19:50:20.742Z,44.08
2022-08-25T19:52:49.894Z,48.60
2022-08-25T19:55:17.339Z,46.40
2022-08-25T19:57:45.298Z,45.35
2022-08-25T20:00:17.861Z,50.53
2022-08-25T20:02:45.215Z,43.50
2022-08-25T20:05:13.568Z,46.10
2022-08-25T20:07:41.285Z,40.47
2022-08-25T20:10:14.140Z,42.42
2022-08-25T20:12:41.718Z,44.05
2022-08-25T20:15:11.308Z,46.13
2022-08-25T20:17:38.278Z,45.90
2022-08-25T20:20:12.312Z,48.17
2022-08-25T20:22:39.675Z,45.47
2022-08-25T20:25:18.898Z,42.45
2022-08-25T20:27:53.637Z,41.65
2022-08-25T20:30:29.631Z,44.07
2022-08-25T20:32:57.563Z,42.72
2022-08-25T20:35:26.818Z,44.50
2022-08-25T20:37:54.698Z,34.67
2022-08-25T20:40:25.516Z,40.27
2022-08-25T20:42:54.189Z,41.70
2022-08-25T20:45:24.600Z,38.23
2022-08-25T20:47:51.640Z,39.10
2022-08-25T20:50:18.851Z,33.03
2022-08-25T20:52:46.287Z,35.80
2022-08-25T20:55:17.563Z,34.83
2022-08-25T20:57:45.636Z,30.27
2022-08-25T21:00:13.013Z,28.20
2022-08-25T21:02:41.713Z,28.33
2022-08-25T21:05:08.949Z,25.87
2022-08-25T21:07:36.111Z,28.03
2022-08-25T21:10:06.784Z,32.73
2022-08-25T21:12:38.289Z,26.57
2022-08-25T21:15:05.590Z,30.90
2022-08-25T21:17:33.906Z,27.27
2022-08-25T21:20:00.804Z,26.03
2022-08-25T21:22:27.925Z,23.83
2022-08-25T21:24:55.413Z,31.33
2022-08-25T21:27:24.012Z,22.90
2022-08-25T21:29:54.932Z,23.93
2022-08-25T21:32:23.573Z,21.97
2022-08-25T21:34:57.096Z,24.67
2022-08-25T21:37:26.785Z,24.37
2022-08-25T21:39:54.131Z,25.27
2022-08-25T21:42:22.375Z,26.97
2022-08-25T21:44:50.618Z,27.40
2022-08-25T21:47:21.104Z,18.27
2022-08-25T21:49:48.867Z,26.83
2022-08-25T21:52:15.924Z,23.37
2022-08-25T21:54:44.055Z,25.90
2022-08-25T21:57:10.908Z,26.07
2022-08-25T21:59:41.818Z,20.13
2022-08-25T22:02:13.786Z,22.20
2022-08-25T22:04:42.787Z,24.50
2022-08-25T22:07:16.466Z,25.83
2022-08-25T22:09:44.651Z,25.77
2022-08-25T22:12:11.678Z,24.40
2022-08-25T22:14:39.754Z,28.10
2022-08-25T22:17:12.268Z,21.93
2022-08-25T22:19:45.670Z,24.20
2022-08-25T22:22:13.873Z,20.67
2022-08-25T22:24:40.707Z,22.03
2022-08-25T22:27:15.817Z,21.47
2022-08-25T22:29:44.067Z,23.13
2022-08-25T22:32:13.712Z,22.33
2022-08-25T22:34:40.823Z,17.93
2022-08-25T22:37:10.405Z,23.23
2022-08-25T22:39:37.385Z,25.20
2022-08-25T22:42:07.451Z,24.10
2022-08-25T22:44:34.387Z,23.30
2022-08-25T22:47:01.155Z,18.43
2022-08-25T22:49:29.255Z,21.03
2022-08-25T22:51:57.602Z,22.30
2022-08-25T22:54:25.389Z,18.17
2022-08-25T22:56:52.584Z,19.77
2022-08-25T22:59:20.167Z,18.43
2022-08-25T23:01:49.140Z,19.43
2022-08-25T23:04:16.018Z,11.97
2022-08-25T23:06:44.892Z,13.97
2022-08-25T23:09:14.136Z,14.30
2022-08-25T23:11:40.914Z,15.30
2022-08-25T23:14:11.074Z,15.57
2022-08-25T23:16:42.758Z,11.90
2022-08-25T23:19:13.757Z,15.90
2022-08-25T23:22:00.675Z,15.13
2022-08-25T23:24:31.275Z,12.57
2022-08-25T23:27:03.909Z,10.40
2022-08-25T23:29:33.180Z,14.33
2022-08-25T23:32:00.294Z,10.90
2022-08-25T23:34:28.499Z,11.33
2022-08-25T23:36:56.428Z,12.37
2022-08-25T23:39:23.708Z,10.77
2022-08-25T23:41:51.662Z,9.63
2022-08-25T23:44:20.893Z,8.20
2022-08-25T23:46:48.632Z,7.77
2022-08-25T23:49:18.498Z,8.83
2022-08-25T23:51:46.631Z,6.43
2022-08-25T23:54:14.746Z,9.73
2022-08-25T23:56:45.019Z,5.97
2022-08-25T23:59:24.254Z,7.00
